Almont, ND

3:14 PM MDT on July 27, 2016 (GMT -0600)
Lake Tschida | | Change Station

Elev 2080 ft 46.61 °N, 101.83 °W | Updated 49 seconds ago

Mostly Cloudy
Mostly Cloudy
75.0 °F
Feels Like 77 °F
N
2.7
Wind Variable Wind from SE
Gusts 4.9 mph

Today
High -- | Low -- °F
--% Chance of Precip.
Yesterday
High -- | Low -- °F
Precip. -- in
Pressure 30.11 in
Visibility 10.0 miles
Clouds Mostly Cloudy 4200 ft
Heat Index 77 °F
Dew Point 61 °F
Humidity 62%
Rainfall 0.00 in
Snow Depth Not available.
5:21 AM 8:23 PM
Last Quarter, 39% visible
METAR KD57 272055Z AUTO 13005KT 10SM BKN042 25/14 A3011 RMK AO2
Pressure 30.11 in
Visibility 10.0 miles
Clouds Mostly Cloudy 4200 ft
Heat Index 77 °F
Dew Point 61 °F
Humidity 62%
Rainfall 0.00 in
Snow Depth Not available.
5:21 AM 8:23 PM
Last Quarter, 39% visible
METAR KD57 272055Z AUTO 13005KT 10SM BKN042 25/14 A3011 RMK AO2

10-Day Weather Forecast

Almanac

Astronomy

Jul. 27, 2016 Rise Set
Actual Time
Civil Twilight
Nautical Twilight
Astronomical Twilight
Moon
Length of Visible Light
Length of Day
Tomorrow will be .
, % of the Moon is Illuminated

Today's Extremes

State Highs State Lows

Community

WunderPhotos

Upload Photos

1,927,937 photos uploaded!

WunderBlog® & News

Nearby

Air Quality

  Air Quality AQ Index Pollutant
Not available.

Snow Depth

Station Depth Elevation

Earthquake Activity

City Distance Mag. Time & Date
Minimum magnitude displayed is 2.5.

Coastal Water Temperatures

Place Temperature

Stations

Nearby Weather Stations

Station Location Temp. Windchill Dew Point Humidity Wind Precip. Elev Updated Type
                   

Watches & Warnings

There are currently no watches in effect.